createdAt,value
2018-05-07T00:00:24.482Z,51.40
2018-05-07T00:02:52.546Z,52.10
2018-05-07T00:05:20.588Z,51.90
2018-05-07T00:07:48.646Z,52.00
2018-05-07T00:10:16.699Z,52.60
2018-05-07T00:12:44.734Z,52.50
2018-05-07T00:15:13.578Z,53.80
2018-05-07T00:17:41.626Z,53.80
2018-05-07T00:20:09.776Z,53.80
2018-05-07T00:22:38.670Z,54.90
2018-05-07T00:25:06.677Z,54.80
2018-05-07T00:27:34.715Z,54.10
2018-05-07T00:30:03.513Z,54.20
2018-05-07T00:32:31.565Z,54.20
2018-05-07T00:35:00.453Z,54.30
2018-05-07T00:37:28.501Z,54.20
2018-05-07T00:39:56.610Z,54.30
2018-05-07T00:42:25.517Z,54.20
2018-05-07T00:44:53.606Z,54.10
2018-05-07T00:47:21.653Z,54.30
2018-05-07T00:49:49.761Z,54.80
2018-05-07T00:52:17.779Z,56.80
2018-05-07T00:54:59.207Z,56.50
2018-05-07T00:57:27.286Z,56.40
2018-05-07T00:59:55.374Z,57.40
2018-05-07T01:02:23.434Z,56.40
2018-05-07T01:04:51.475Z,56.30
2018-05-07T01:07:19.521Z,57.60
2018-05-07T01:09:48.345Z,57.10
2018-05-07T01:12:16.378Z,57.00
2018-05-07T01:14:45.218Z,58.50
2018-05-07T01:17:13.317Z,58.50
2018-05-07T01:19:41.397Z,58.50
2018-05-07T01:22:09.472Z,59.30
2018-05-07T01:24:37.563Z,60.10
2018-05-07T01:27:06.410Z,59.90
2018-05-07T01:29:34.499Z,59.80
2018-05-07T01:32:02.582Z,60.60
2018-05-07T01:34:31.386Z,60.90
2018-05-07T01:36:59.429Z,60.90
2018-05-07T01:39:27.505Z,60.80
2018-05-07T01:41:55.603Z,60.70
2018-05-07T01:44:23.717Z,61.30
2018-05-07T01:46:51.806Z,61.00
2018-05-07T01:49:19.878Z,60.80
2018-05-07T01:51:47.958Z,59.90
2018-05-07T01:54:16.030Z,61.20
2018-05-07T01:56:44.082Z,60.00
2018-05-07T01:59:12.154Z,61.10
2018-05-07T02:01:51.063Z,61.00
2018-05-07T02:04:19.089Z,61.40
2018-05-07T02:06:47.926Z,62.00
2018-05-07T02:09:17.019Z,61.90
2018-05-07T02:11:45.102Z,61.30
2018-05-07T02:14:13.197Z,61.60
2018-05-07T02:17:06.598Z,61.90
2018-05-07T02:19:40.241Z,63.40
2018-05-07T02:22:13.344Z,63.40
2018-05-07T02:24:41.383Z,63.80
2018-05-07T02:27:09.469Z,62.70
2018-05-07T02:29:37.523Z,63.90
2018-05-07T02:32:05.561Z,65.10
2018-05-07T02:34:33.627Z,63.80
2018-05-07T02:37:01.683Z,63.50
2018-05-07T02:39:30.548Z,65.90
2018-05-07T02:41:58.593Z,65.20
2018-05-07T02:44:26.630Z,65.10
2018-05-07T02:46:54.711Z,65.30
2018-05-07T02:49:22.774Z,65.50
2018-05-07T02:51:50.803Z,64.90
2018-05-07T02:54:18.862Z,65.50
2018-05-07T02:56:46.908Z,65.20
2018-05-07T02:59:14.989Z,65.80
2018-05-07T03:01:43.042Z,65.80
2018-05-07T03:04:11.158Z,65.30
2018-05-07T03:06:39.227Z,65.60
2018-05-07T03:09:07.289Z,65.60
2018-05-07T03:11:35.372Z,65.80
2018-05-07T03:14:03.446Z,66.30
2018-05-07T03:16:31.491Z,66.40
2018-05-07T03:18:59.587Z,66.40
2018-05-07T03:21:27.658Z,66.50
2018-05-07T03:23:55.697Z,66.60
2018-05-07T03:26:23.745Z,66.40
2018-05-07T03:28:51.782Z,66.80
2018-05-07T03:31:19.849Z,66.90
2018-05-07T03:33:48.097Z,67.60
2018-05-07T03:36:16.130Z,67.70
2018-05-07T03:38:44.203Z,67.80
2018-05-07T03:41:12.518Z,67.90
2018-05-07T03:43:40.559Z,67.60
2018-05-07T03:46:08.629Z,68.10
2018-05-07T03:48:36.692Z,67.50
2018-05-07T03:51:05.519Z,67.10
2018-05-07T03:53:40.503Z,67.20
2018-05-07T03:56:09.306Z,67.20
2018-05-07T03:58:37.410Z,67.10
2018-05-07T04:01:06.313Z,67.10
2018-05-07T04:03:34.387Z,67.10
2018-05-07T04:06:02.422Z,67.40
2018-05-07T04:08:30.520Z,67.30
2018-05-07T04:10:58.581Z,67.40
2018-05-07T04:13:26.625Z,67.00
2018-05-07T04:15:54.755Z,66.40
2018-05-07T04:18:34.438Z,66.20
2018-05-07T04:21:13.321Z,67.30
2018-05-07T04:23:57.217Z,67.30
2018-05-07T04:26:25.319Z,67.80
2018-05-07T04:28:53.349Z,68.70
2018-05-07T04:31:21.437Z,67.70
2018-05-07T04:33:49.564Z,68.00
2018-05-07T04:36:17.608Z,67.30
2018-05-07T04:38:45.690Z,68.10
2018-05-07T04:41:13.765Z,68.00
2018-05-07T04:43:41.834Z,68.00
2018-05-07T04:46:09.913Z,68.30
2018-05-07T04:48:38.016Z,68.30
2018-05-07T04:51:06.918Z,68.30
2018-05-07T04:53:34.982Z,68.30
2018-05-07T04:56:03.773Z,67.80
2018-05-07T04:58:32.026Z,67.00
2018-05-07T05:01:07.783Z,68.30
2018-05-07T05:03:36.635Z,67.60
2018-05-07T05:06:04.714Z,67.50
2018-05-07T05:08:32.779Z,66.90
2018-05-07T05:11:00.830Z,68.30
2018-05-07T05:13:28.862Z,68.80
2018-05-07T05:15:57.663Z,69.20
2018-05-07T05:18:25.799Z,69.20
2018-05-07T05:20:53.885Z,68.70
2018-05-07T05:23:22.750Z,69.20
2018-05-07T05:25:50.802Z,69.20
2018-05-07T05:28:18.870Z,69.00
2018-05-07T05:30:46.879Z,69.10
2018-05-07T05:33:14.962Z,69.50
2018-05-07T05:35:43.095Z,69.60
2018-05-07T05:38:11.169Z,68.30
2018-05-07T05:40:39.252Z,68.30
2018-05-07T05:43:07.322Z,68.80
2018-05-07T05:45:35.430Z,68.80
2018-05-07T05:48:20.442Z,69.20
2018-05-07T05:50:48.473Z,69.20
2018-05-07T05:53:17.310Z,66.90
2018-05-07T05:55:45.394Z,66.80
2018-05-07T05:58:13.495Z,67.20
2018-05-07T06:00:42.341Z,66.10
2018-05-07T06:03:10.438Z,66.00
2018-05-07T06:05:38.517Z,65.90
2018-05-07T06:08:06.549Z,65.90
2018-05-07T06:10:34.663Z,65.70
2018-05-07T06:13:02.726Z,66.00
2018-05-07T06:15:30.793Z,66.00
2018-05-07T06:17:58.889Z,65.70
2018-05-07T06:20:27.746Z,66.50
2018-05-07T06:23:01.952Z,66.40
2018-05-07T06:25:36.032Z,65.80
2018-05-07T06:28:04.057Z,65.70
2018-05-07T06:30:36.073Z,67.20
2018-05-07T06:33:04.150Z,68.10
2018-05-07T06:35:32.242Z,66.70
2018-05-07T06:38:00.317Z,68.10
2018-05-07T06:40:28.398Z,68.00
2018-05-07T06:42:56.440Z,67.40
2018-05-07T06:47:58.004Z,66.70
2018-05-07T06:50:26.102Z,66.60
2018-05-07T06:52:54.172Z,66.00
2018-05-07T06:58:17.268Z,66.70
2018-05-07T07:00:45.306Z,66.50
2018-05-07T07:03:18.347Z,65.00
2018-05-07T07:05:47.175Z,63.30
2018-05-07T07:08:15.334Z,63.20
2018-05-07T07:10:44.025Z,63.30
2018-05-07T07:13:12.118Z,63.30
2018-05-07T07:15:41.158Z,61.30
2018-05-07T07:18:09.999Z,60.50
2018-05-07T07:20:38.078Z,60.50
2018-05-07T07:23:07.131Z,60.20
2018-05-07T07:25:35.186Z,61.00
2018-05-07T07:31:08.097Z,59.80
2018-05-07T07:33:40.077Z,60.10
2018-05-07T07:36:08.920Z,59.30
2018-05-07T07:38:43.091Z,59.30
2018-05-07T07:41:11.143Z,59.80
2018-05-07T07:43:49.169Z,59.90
2018-05-07T07:46:17.294Z,59.10
2018-05-07T07:48:46.147Z,59.10
2018-05-07T07:51:14.227Z,59.10
2018-05-07T07:53:44.423Z,58.30
2018-05-07T07:56:12.398Z,58.60
2018-05-07T07:58:40.497Z,57.10
2018-05-07T08:01:19.443Z,55.90
2018-05-07T08:03:48.287Z,55.50
2018-05-07T08:06:16.353Z,55.50
2018-05-07T08:08:44.438Z,56.30
2018-05-07T08:11:13.487Z,56.40
2018-05-07T08:13:41.563Z,57.60
2018-05-07T08:16:09.666Z,56.60
2018-05-07T08:18:37.722Z,56.50
2018-05-07T08:21:05.749Z,54.70
2018-05-07T08:23:33.839Z,56.60
2018-05-07T08:26:01.870Z,56.70
2018-05-07T08:28:30.166Z,56.70
2018-05-07T08:30:58.294Z,56.90
2018-05-07T08:33:26.348Z,56.30
2018-05-07T08:35:54.455Z,55.60
2018-05-07T08:38:22.534Z,55.50
2018-05-07T08:40:50.577Z,55.40
2018-05-07T08:43:18.638Z,54.80
2018-05-07T08:45:46.720Z,54.40
2018-05-07T08:48:14.761Z,53.10
2018-05-07T08:50:47.562Z,55.80
2018-05-07T08:53:16.448Z,54.50
2018-05-07T08:55:44.462Z,54.40
2018-05-07T08:58:12.524Z,55.00
2018-05-07T09:00:40.609Z,53.60
2018-05-07T09:03:15.566Z,53.80
2018-05-07T09:05:43.629Z,53.60
2018-05-07T09:08:11.697Z,54.30
2018-05-07T09:10:39.798Z,52.10
2018-05-07T09:13:08.639Z,54.10
2018-05-07T09:15:36.678Z,54.10
2018-05-07T09:18:04.718Z,51.30
2018-05-07T09:20:33.852Z,51.30
2018-05-07T09:23:01.935Z,51.20
2018-05-07T09:25:29.980Z,52.20
2018-05-07T09:27:58.429Z,50.60
2018-05-07T09:30:26.458Z,52.30
2018-05-07T09:32:54.499Z,51.20
2018-05-07T09:35:22.603Z,51.20
2018-05-07T09:37:50.690Z,51.80
2018-05-07T09:40:18.757Z,51.90
2018-05-07T09:42:46.830Z,50.50
2018-05-07T09:45:14.939Z,51.20
2018-05-07T09:47:42.947Z,48.40
2018-05-07T09:50:10.994Z,49.00
2018-05-07T09:52:39.423Z,48.60
2018-05-07T09:55:07.462Z,49.40
2018-05-07T10:00:43.301Z,47.60
2018-05-07T10:03:11.478Z,47.50
2018-05-07T10:05:39.543Z,48.40
2018-05-07T10:08:07.609Z,48.20
2018-05-07T10:10:35.687Z,46.50
2018-05-07T10:13:03.771Z,48.00
2018-05-07T10:15:31.858Z,50.40
2018-05-07T10:17:59.922Z,50.30
2018-05-07T10:20:31.174Z,48.90
2018-05-07T10:22:59.278Z,49.80
2018-05-07T10:25:27.333Z,48.70
2018-05-07T10:27:55.400Z,52.20
2018-05-07T10:30:23.462Z,46.50
2018-05-07T10:32:51.605Z,47.20
2018-05-07T10:35:19.689Z,47.10
2018-05-07T10:37:47.722Z,48.60
2018-05-07T10:40:15.794Z,48.50
2018-05-07T10:42:43.869Z,49.80
2018-05-07T10:45:22.934Z,47.40
2018-05-07T10:47:51.031Z,51.40
2018-05-07T10:50:19.086Z,49.10
2018-05-07T10:52:47.153Z,44.10
2018-05-07T10:55:16.206Z,45.30
2018-05-07T10:57:44.289Z,44.30
2018-05-07T11:00:12.395Z,43.90
2018-05-07T11:02:41.280Z,45.10
2018-05-07T11:05:09.353Z,45.10
2018-05-07T11:07:37.406Z,44.40
2018-05-07T11:10:05.481Z,44.70
2018-05-07T11:12:33.538Z,45.30
2018-05-07T11:15:01.606Z,44.00
2018-05-07T11:17:29.761Z,41.70
2018-05-07T11:19:57.807Z,43.90
2018-05-07T11:22:25.867Z,44.30
2018-05-07T11:24:53.925Z,42.90
2018-05-07T11:27:21.998Z,42.40
2018-05-07T11:29:50.074Z,44.20
2018-05-07T11:32:18.150Z,47.40
2018-05-07T11:34:46.210Z,42.90
2018-05-07T11:37:14.281Z,43.60
2018-05-07T11:39:42.369Z,45.80
2018-05-07T11:42:10.869Z,43.40
2018-05-07T11:44:42.889Z,43.30
2018-05-07T11:47:10.931Z,43.00
2018-05-07T11:49:39.027Z,45.10
2018-05-07T11:52:07.125Z,44.10
2018-05-07T11:54:43.085Z,39.40
2018-05-07T11:57:11.166Z,43.00
2018-05-07T11:59:39.225Z,40.00
2018-05-07T12:02:07.298Z,42.20
2018-05-07T12:04:35.358Z,40.50
2018-05-07T12:07:03.455Z,43.70
2018-05-07T12:09:31.550Z,44.10
2018-05-07T12:11:59.607Z,42.70
2018-05-07T12:14:31.740Z,43.30
2018-05-07T12:16:59.778Z,40.60
2018-05-07T12:19:28.620Z,44.10
2018-05-07T12:21:56.697Z,44.20
2018-05-07T12:24:24.811Z,39.80
2018-05-07T12:26:52.862Z,41.90
2018-05-07T12:29:20.946Z,41.60
2018-05-07T12:31:49.841Z,40.80
2018-05-07T12:34:17.892Z,40.90
2018-05-07T12:36:53.838Z,43.10
2018-05-07T12:39:21.882Z,41.60
2018-05-07T12:41:49.933Z,40.00
2018-05-07T12:44:18.053Z,39.70
2018-05-07T12:46:46.132Z,39.60
2018-05-07T12:49:14.219Z,40.60
2018-05-07T12:51:42.294Z,38.60
2018-05-07T12:54:10.345Z,38.70
2018-05-07T12:56:38.448Z,37.90
2018-05-07T12:59:06.578Z,37.50
2018-05-07T13:01:35.378Z,36.90
2018-05-07T13:04:03.458Z,36.80
2018-05-07T13:06:31.521Z,37.50
2018-05-07T13:08:59.621Z,39.00
2018-05-07T13:11:47.233Z,37.50
2018-05-07T13:14:15.289Z,36.60
2018-05-07T13:16:43.346Z,37.90
2018-05-07T13:19:11.439Z,38.80
2018-05-07T13:21:39.473Z,39.60
2018-05-07T13:24:07.534Z,35.10
2018-05-07T13:26:35.659Z,35.80
2018-05-07T13:29:03.718Z,34.70
2018-05-07T13:31:41.835Z,38.70
2018-05-07T13:34:09.998Z,36.50
2018-05-07T13:36:38.081Z,33.20
2018-05-07T13:39:06.105Z,38.50
2018-05-07T13:41:34.177Z,37.50
2018-05-07T13:44:02.232Z,34.00
2018-05-07T13:46:30.281Z,37.20
2018-05-07T13:48:58.330Z,33.80
2018-05-07T13:51:31.354Z,34.90
2018-05-07T13:53:59.426Z,33.30
2018-05-07T13:56:27.514Z,33.60
2018-05-07T13:58:55.593Z,35.00
2018-05-07T14:01:23.650Z,35.00
2018-05-07T14:03:51.722Z,33.40
2018-05-07T14:06:19.792Z,34.20
2018-05-07T14:08:56.762Z,35.00
2018-05-07T14:11:24.842Z,33.70
2018-05-07T14:13:56.909Z,31.60
2018-05-07T14:16:25.000Z,34.30
2018-05-07T14:18:53.058Z,31.90
2018-05-07T14:21:21.137Z,31.20
2018-05-07T14:23:49.954Z,33.30
2018-05-07T14:26:25.861Z,33.10
2018-05-07T14:28:53.930Z,34.00
2018-05-07T14:31:21.985Z,32.40
2018-05-07T14:33:50.033Z,32.60
2018-05-07T14:36:23.954Z,31.10
2018-05-07T14:38:52.043Z,34.30
2018-05-07T14:41:20.025Z,34.60
2018-05-07T14:43:48.074Z,32.20
2018-05-07T14:46:23.913Z,32.10
2018-05-07T14:48:51.970Z,33.80
2018-05-07T14:51:20.091Z,33.70
2018-05-07T14:53:48.134Z,31.70
2018-05-07T14:56:16.187Z,30.80
2018-05-07T14:58:46.162Z,29.90
2018-05-07T15:01:14.203Z,33.30
2018-05-07T15:03:42.254Z,33.50
2018-05-07T15:06:10.295Z,31.60
2018-05-07T15:08:38.325Z,33.00
2018-05-07T15:11:06.385Z,31.90
2018-05-07T15:13:34.506Z,34.20
2018-05-07T15:16:02.469Z,33.90
2018-05-07T15:18:30.633Z,31.30
2018-05-07T15:20:58.678Z,31.10
2018-05-07T15:23:26.776Z,31.30
2018-05-07T15:26:10.634Z,32.00
2018-05-07T15:28:38.707Z,31.40
2018-05-07T15:31:06.758Z,30.00
2018-05-07T15:33:34.826Z,30.30
2018-05-07T15:36:02.875Z,30.20
2018-05-07T15:38:35.859Z,29.30
2018-05-07T15:41:04.046Z,31.30
2018-05-07T15:43:32.118Z,31.20
2018-05-07T15:46:00.194Z,30.50
2018-05-07T15:48:28.273Z,30.00
2018-05-07T15:50:56.370Z,29.50
2018-05-07T15:53:24.425Z,29.20
2018-05-07T15:55:52.572Z,28.80
2018-05-07T15:58:21.365Z,26.80
2018-05-07T16:00:49.425Z,26.70
2018-05-07T16:03:17.764Z,25.40
2018-05-07T16:05:52.374Z,25.00
2018-05-07T16:08:20.441Z,21.80
2018-05-07T16:10:48.513Z,19.90
2018-05-07T16:13:20.282Z,21.60
2018-05-07T16:15:48.357Z,19.00
2018-05-07T16:18:16.419Z,17.00
2018-05-07T16:20:44.574Z,19.20
2018-05-07T16:23:12.755Z,19.40
2018-05-07T16:25:41.494Z,17.20
2018-05-07T16:28:20.372Z,17.20
2018-05-07T16:30:50.486Z,17.00
2018-05-07T16:33:18.836Z,16.80
2018-05-07T16:35:47.974Z,16.40
2018-05-07T16:38:16.531Z,18.10
2018-05-07T16:40:44.973Z,17.00
2018-05-07T16:43:13.013Z,17.50
2018-05-07T16:45:41.100Z,17.90
2018-05-07T16:48:12.341Z,16.10
2018-05-07T16:50:40.433Z,15.60
2018-05-07T16:53:08.486Z,17.30
2018-05-07T16:55:36.527Z,16.70
2018-05-07T16:58:04.594Z,17.40
2018-05-07T17:00:32.690Z,16.40
2018-05-07T17:03:00.781Z,15.90
2018-05-07T17:05:29.786Z,15.60
2018-05-07T17:07:57.858Z,16.70
2018-05-07T17:10:26.118Z,17.20
2018-05-07T17:12:54.182Z,18.70
2018-05-07T17:15:22.278Z,19.00
2018-05-07T17:17:51.118Z,20.00
2018-05-07T17:20:19.198Z,19.90
2018-05-07T17:22:47.275Z,20.20
2018-05-07T17:25:15.326Z,20.40
2018-05-07T17:27:43.407Z,20.60
2018-05-07T17:30:11.474Z,20.70
2018-05-07T17:32:39.572Z,21.50
2018-05-07T17:35:07.594Z,21.90
2018-05-07T17:37:35.641Z,21.40
2018-05-07T17:40:04.632Z,22.10
2018-05-07T17:42:36.686Z,22.10
2018-05-07T17:45:16.714Z,22.30
2018-05-07T17:47:56.597Z,21.90
2018-05-07T17:50:24.726Z,21.90
2018-05-07T17:52:52.810Z,22.10
2018-05-07T17:55:20.894Z,22.70
2018-05-07T17:57:48.975Z,22.90
2018-05-07T18:00:17.929Z,22.80
2018-05-07T18:02:46.021Z,23.10
2018-05-07T18:05:14.162Z,22.90
2018-05-07T18:07:42.239Z,23.20
2018-05-07T18:10:10.306Z,23.70
2018-05-07T18:12:38.400Z,24.50
2018-05-07T18:15:06.502Z,25.30
2018-05-07T18:17:34.574Z,25.80
2018-05-07T18:20:02.643Z,26.10
2018-05-07T18:22:30.694Z,26.80
2018-05-07T18:24:58.765Z,27.10
2018-05-07T18:27:26.850Z,27.70
2018-05-07T18:29:54.922Z,28.20
2018-05-07T18:32:23.170Z,29.20
2018-05-07T18:34:51.203Z,29.80
2018-05-07T18:37:20.765Z,31.10
2018-05-07T18:39:49.652Z,32.10
2018-05-07T18:42:26.685Z,32.10
2018-05-07T18:44:54.789Z,33.90
2018-05-07T18:47:22.865Z,34.20
2018-05-07T18:49:50.937Z,36.60
2018-05-07T18:52:18.977Z,36.70
2018-05-07T18:54:47.026Z,38.10
2018-05-07T18:57:15.114Z,38.30
2018-05-07T18:59:43.165Z,39.30
2018-05-07T19:02:11.259Z,39.90
2018-05-07T19:04:39.311Z,41.30
2018-05-07T19:07:07.481Z,41.80
2018-05-07T19:09:35.457Z,41.10
2018-05-07T19:12:03.504Z,41.80
2018-05-07T19:14:31.582Z,42.60
2018-05-07T19:16:59.669Z,42.60
2018-05-07T19:19:27.726Z,42.60
2018-05-07T19:21:55.828Z,43.50
2018-05-07T19:24:23.922Z,43.30
2018-05-07T19:26:52.025Z,43.90
2018-05-07T19:29:20.111Z,43.50
2018-05-07T19:31:54.281Z,44.30
2018-05-07T19:34:22.330Z,44.00
2018-05-07T19:36:50.398Z,44.30
2018-05-07T19:39:18.502Z,44.60
2018-05-07T19:41:46.553Z,45.00
2018-05-07T19:44:14.612Z,45.00
2018-05-07T19:46:42.811Z,45.20
2018-05-07T19:49:11.609Z,45.10
2018-05-07T19:51:40.421Z,45.90
2018-05-07T19:54:08.513Z,45.90
2018-05-07T19:56:36.600Z,46.30
2018-05-07T19:59:05.429Z,46.10
2018-05-07T20:01:34.253Z,46.00
2018-05-07T20:04:02.323Z,45.80
2018-05-07T20:06:32.522Z,46.30
2018-05-07T20:09:00.589Z,46.30
2018-05-07T20:11:29.421Z,46.60
2018-05-07T20:13:57.497Z,46.60
2018-05-07T20:16:25.614Z,46.60
2018-05-07T20:18:53.793Z,46.90
2018-05-07T20:21:21.875Z,46.80
2018-05-07T20:23:49.962Z,47.30
2018-05-07T20:26:18.036Z,47.10
2018-05-07T20:28:46.106Z,47.50
2018-05-07T20:31:14.277Z,47.10
2018-05-07T20:33:42.379Z,47.60
2018-05-07T20:36:11.218Z,48.30
2018-05-07T20:38:39.250Z,47.80
2018-05-07T20:41:07.328Z,48.10
2018-05-07T20:43:35.477Z,48.20
2018-05-07T20:46:11.242Z,48.00
2018-05-07T20:48:39.326Z,48.00
2018-05-07T20:51:12.577Z,48.10
2018-05-07T20:53:41.506Z,48.50
2018-05-07T20:56:09.571Z,48.50
2018-05-07T20:58:37.622Z,48.50
2018-05-07T21:01:05.818Z,48.60
2018-05-07T21:03:35.805Z,48.80
2018-05-07T21:06:03.909Z,48.80
2018-05-07T21:08:32.319Z,49.00
2018-05-07T21:11:00.391Z,49.10
2018-05-07T21:13:28.462Z,49.00
2018-05-07T21:15:56.536Z,49.30
2018-05-07T21:18:24.582Z,49.20
2018-05-07T21:20:52.641Z,49.40
2018-05-07T21:23:20.729Z,49.30
2018-05-07T21:25:53.862Z,49.40
2018-05-07T21:28:22.042Z,49.40
2018-05-07T21:30:50.094Z,49.50
2018-05-07T21:33:18.178Z,49.20
2018-05-07T21:35:46.291Z,49.40
2018-05-07T21:38:14.345Z,49.40
2018-05-07T21:40:42.453Z,49.70
2018-05-07T21:43:10.537Z,49.80
2018-05-07T21:45:38.602Z,49.50
2018-05-07T21:48:06.668Z,49.70
2018-05-07T21:50:34.766Z,49.90
2018-05-07T21:53:02.821Z,50.10
2018-05-07T21:55:30.886Z,50.00
2018-05-07T21:58:04.029Z,49.70
2018-05-07T22:00:32.098Z,49.80
2018-05-07T22:03:00.153Z,50.10
2018-05-07T22:05:28.233Z,49.80
2018-05-07T22:07:56.389Z,50.30
2018-05-07T22:10:24.358Z,49.80
2018-05-07T22:12:52.586Z,50.20
2018-05-07T22:15:20.666Z,50.30
2018-05-07T22:17:48.733Z,50.20
2018-05-07T22:20:16.807Z,50.30
2018-05-07T22:22:44.838Z,50.40
2018-05-07T22:25:12.902Z,50.40
2018-05-07T22:27:40.999Z,50.60
2018-05-07T22:30:09.070Z,50.80
2018-05-07T22:32:37.150Z,50.40
2018-05-07T22:35:05.966Z,51.30
2018-05-07T22:37:34.042Z,51.30
2018-05-07T22:40:02.124Z,51.10
2018-05-07T22:42:31.600Z,51.10
2018-05-07T22:45:06.590Z,51.90
2018-05-07T22:47:34.662Z,52.00
2018-05-07T22:50:02.707Z,52.00
2018-05-07T22:52:30.780Z,52.00
2018-05-07T22:55:05.478Z,52.00
2018-05-07T22:57:33.559Z,52.10
2018-05-07T23:00:01.631Z,51.70
2018-05-07T23:02:29.698Z,51.90
2018-05-07T23:05:06.506Z,51.70
2018-05-07T23:07:34.577Z,51.90
2018-05-07T23:10:02.662Z,52.10
2018-05-07T23:12:30.758Z,52.30
2018-05-07T23:14:58.802Z,51.90
2018-05-07T23:17:26.845Z,51.70
2018-05-07T23:19:54.930Z,52.20
2018-05-07T23:22:22.993Z,52.60
2018-05-07T23:24:51.053Z,52.30
2018-05-07T23:27:19.152Z,51.90
2018-05-07T23:29:47.193Z,52.10
2018-05-07T23:32:15.241Z,52.40
2018-05-07T23:34:43.338Z,52.20
2018-05-07T23:37:12.155Z,52.80
2018-05-07T23:39:40.215Z,52.80
2018-05-07T23:42:08.296Z,53.00
2018-05-07T23:44:36.354Z,53.50
2018-05-07T23:47:04.522Z,53.30
2018-05-07T23:49:32.577Z,53.00
2018-05-07T23:52:00.649Z,52.60
2018-05-07T23:54:28.822Z,52.70
2018-05-07T23:56:56.874Z,53.20
2018-05-07T23:59:24.928Z,53.00
